createdAt,value
2019-05-12T00:00:40.592Z,13.60
2019-05-12T00:03:10.188Z,12.03
2019-05-12T00:05:39.720Z,7.10
2019-05-12T00:08:09.606Z,8.53
2019-05-12T00:10:39.173Z,6.37
2019-05-12T00:13:08.753Z,12.87
2019-05-12T00:15:38.591Z,9.43
2019-05-12T00:18:09.110Z,10.20
2019-05-12T00:20:39.333Z,11.40
2019-05-12T00:23:23.300Z,9.93
2019-05-12T00:25:40.061Z,11.43
2019-05-12T00:28:09.568Z,7.40
2019-05-12T00:30:41.089Z,10.30
2019-05-12T00:33:10.584Z,7.50
2019-05-12T00:35:40.131Z,13.60
2019-05-12T00:38:10.849Z,7.73
2019-05-12T00:40:40.574Z,6.80
2019-05-12T00:43:11.093Z,9.27
2019-05-12T00:45:40.646Z,7.13
2019-05-12T00:48:10.160Z,11.90
2019-05-12T00:50:39.748Z,10.63
2019-05-12T00:53:09.741Z,8.00
2019-05-12T00:55:39.382Z,10.20
2019-05-12T00:58:09.112Z,7.53
2019-05-12T01:00:40.878Z,7.77
2019-05-12T01:03:10.938Z,9.23
2019-05-12T01:05:42.431Z,13.47
2019-05-12T01:08:11.941Z,15.83
2019-05-12T01:10:41.434Z,9.97
2019-05-12T01:13:11.932Z,9.87
2019-05-12T01:15:41.540Z,9.17
2019-05-12T01:18:11.401Z,16.50
2019-05-12T01:20:40.970Z,8.27
2019-05-12T01:23:10.629Z,9.40
2019-05-12T01:25:40.113Z,9.87
2019-05-12T01:28:09.629Z,11.57
2019-05-12T01:30:39.565Z,8.27
2019-05-12T01:33:09.261Z,10.27
2019-05-12T01:35:39.325Z,10.67
2019-05-12T01:38:08.965Z,9.97
2019-05-12T01:40:39.612Z,7.30
2019-05-12T01:43:09.435Z,10.50
2019-05-12T01:45:38.971Z,10.33
2019-05-12T01:48:09.294Z,13.43
2019-05-12T01:50:39.367Z,9.53
2019-05-12T01:53:09.170Z,10.40
2019-05-12T01:55:39.156Z,9.30
2019-05-12T01:58:09.072Z,8.80
2019-05-12T02:00:39.393Z,14.23
2019-05-12T02:03:09.615Z,11.73
2019-05-12T02:05:40.923Z,9.30
2019-05-12T02:08:18.509Z,13.03
2019-05-12T02:10:49.897Z,11.73
2019-05-12T02:13:19.405Z,9.83
2019-05-12T02:15:49.217Z,16.33
2019-05-12T02:18:18.697Z,7.30
2019-05-12T02:20:48.344Z,19.57
2019-05-12T02:23:18.053Z,11.40
2019-05-12T02:25:48.365Z,8.30
2019-05-12T02:28:18.137Z,9.43
2019-05-12T02:30:50.293Z,9.73
2019-05-12T02:33:20.497Z,9.40
2019-05-12T02:35:50.035Z,7.83
2019-05-12T02:38:19.577Z,7.83
2019-05-12T02:40:49.098Z,10.20
2019-05-12T02:43:18.639Z,10.10
2019-05-12T02:45:48.230Z,8.73
2019-05-12T02:48:17.800Z,9.53
2019-05-12T02:50:48.448Z,7.77
2019-05-12T02:53:18.020Z,18.57
2019-05-12T02:55:48.531Z,13.40
2019-05-12T02:58:19.200Z,9.93
2019-05-12T03:00:48.827Z,17.43
2019-05-12T03:03:24.907Z,9.07
2019-05-12T03:05:55.589Z,10.47
2019-05-12T03:08:26.462Z,13.80
2019-05-12T03:10:56.827Z,7.27
2019-05-12T03:13:28.202Z,9.47
2019-05-12T03:15:57.805Z,7.90
2019-05-12T03:18:27.557Z,11.33
2019-05-12T03:20:57.097Z,9.63
2019-05-12T03:23:26.680Z,11.37
2019-05-12T03:25:56.332Z,12.67
2019-05-12T03:28:26.086Z,10.73
2019-05-12T03:30:57.703Z,8.87
2019-05-12T03:33:34.353Z,10.70
2019-05-12T03:36:00.608Z,11.60
2019-05-12T03:38:29.526Z,10.70
2019-05-12T03:40:59.032Z,8.83
2019-05-12T03:43:28.577Z,8.63
2019-05-12T03:45:58.158Z,10.93
2019-05-12T03:48:27.641Z,12.87
2019-05-12T03:50:57.213Z,11.17
2019-05-12T03:53:26.735Z,12.17
2019-05-12T03:55:56.218Z,8.57
2019-05-12T03:58:25.857Z,9.67
2019-05-12T04:00:55.542Z,11.17
2019-05-12T04:03:25.192Z,10.20
2019-05-12T04:05:55.512Z,13.37
2019-05-12T04:08:25.164Z,11.30
2019-05-12T04:10:54.950Z,13.00
2019-05-12T04:13:26.449Z,9.53
2019-05-12T04:15:56.040Z,8.83
2019-05-12T04:18:25.580Z,9.17
2019-05-12T04:20:55.151Z,11.03
2019-05-12T04:23:25.032Z,8.33
2019-05-12T04:26:07.362Z,10.30
2019-05-12T04:28:26.266Z,10.87
2019-05-12T04:30:55.774Z,8.50
2019-05-12T04:33:25.870Z,9.80
2019-05-12T04:35:55.660Z,13.73
2019-05-12T04:38:25.244Z,13.20
2019-05-12T04:40:55.689Z,9.07
2019-05-12T04:43:25.640Z,11.33
2019-05-12T04:45:55.325Z,13.80
2019-05-12T04:48:25.738Z,14.63
2019-05-12T04:50:55.621Z,14.93
2019-05-12T04:53:25.564Z,12.13
2019-05-12T04:56:07.382Z,15.27
2019-05-12T04:58:26.418Z,16.00
2019-05-12T05:00:56.013Z,9.80
2019-05-12T05:03:25.584Z,26.40
2019-05-12T05:05:55.203Z,13.03
2019-05-12T05:08:24.793Z,14.63
2019-05-12T05:10:54.872Z,14.83
2019-05-12T05:13:25.045Z,12.67
2019-05-12T05:15:55.044Z,10.57
2019-05-12T05:18:25.142Z,12.00
2019-05-12T05:20:54.649Z,15.23
2019-05-12T05:23:24.381Z,9.80
2019-05-12T05:25:54.216Z,10.53
2019-05-12T05:28:24.115Z,15.60
2019-05-12T05:30:53.784Z,9.60
2019-05-12T05:33:25.364Z,11.30
2019-05-12T05:35:54.893Z,15.67
2019-05-12T05:38:24.393Z,8.47
2019-05-12T05:40:54.192Z,11.40
2019-05-12T05:43:24.295Z,11.70
2019-05-12T05:46:02.084Z,11.10
2019-05-12T05:48:25.157Z,9.67
2019-05-12T05:50:54.698Z,8.37
2019-05-12T05:53:24.377Z,8.73
2019-05-12T05:55:58.654Z,8.83
2019-05-12T05:58:26.170Z,18.80
2019-05-12T06:01:02.970Z,13.20
2019-05-12T06:03:28.011Z,7.73
2019-05-12T06:06:01.456Z,10.10
2019-05-12T06:08:28.945Z,10.70
2019-05-12T06:10:58.549Z,13.00
2019-05-12T06:13:31.940Z,9.47
2019-05-12T06:15:59.652Z,7.87
2019-05-12T06:18:29.242Z,11.80
2019-05-12T06:20:58.805Z,8.90
2019-05-12T06:23:28.942Z,10.53
2019-05-12T06:25:59.542Z,9.13
2019-05-12T06:28:31.039Z,14.73
2019-05-12T06:31:00.269Z,12.43
2019-05-12T06:33:31.983Z,7.70
2019-05-12T06:36:03.213Z,9.00
2019-05-12T06:38:37.215Z,12.23
2019-05-12T06:41:03.722Z,11.47
2019-05-12T06:43:35.287Z,6.90
2019-05-12T06:46:05.124Z,7.13
2019-05-12T06:48:34.650Z,11.73
2019-05-12T06:51:04.246Z,12.23
2019-05-12T06:53:33.788Z,7.07
2019-05-12T06:56:04.464Z,9.20
2019-05-12T06:58:34.529Z,10.47
2019-05-12T07:01:10.116Z,9.50
2019-05-12T07:03:37.321Z,6.90
2019-05-12T07:06:09.218Z,8.90
2019-05-12T07:08:38.491Z,8.20
2019-05-12T07:11:08.229Z,5.50
2019-05-12T07:13:37.852Z,5.83
2019-05-12T07:16:16.722Z,13.37
2019-05-12T07:18:46.326Z,8.93
2019-05-12T07:21:20.274Z,6.67
2019-05-12T07:23:47.112Z,5.87
2019-05-12T07:26:19.569Z,8.37
2019-05-12T07:28:49.277Z,4.87
2019-05-12T07:31:18.803Z,8.20
2019-05-12T07:33:48.429Z,6.27
2019-05-12T07:36:19.471Z,5.33
2019-05-12T07:38:49.792Z,5.90
2019-05-12T07:41:23.696Z,5.60
2019-05-12T07:43:59.552Z,7.47
2019-05-12T07:46:28.403Z,7.30
2019-05-12T07:48:58.204Z,5.17
2019-05-12T07:51:30.396Z,7.90
2019-05-12T07:53:59.441Z,8.07
2019-05-12T07:56:32.946Z,5.20
2019-05-12T07:59:00.297Z,7.33
2019-05-12T08:01:29.851Z,8.50
2019-05-12T08:04:01.154Z,6.80
2019-05-12T08:06:34.719Z,7.13
2019-05-12T08:09:04.052Z,4.30
2019-05-12T08:11:37.309Z,6.70
2019-05-12T08:14:05.103Z,5.83
2019-05-12T08:16:36.890Z,6.53
2019-05-12T08:19:08.442Z,3.60
2019-05-12T08:21:43.560Z,3.93
2019-05-12T08:24:08.298Z,4.30
2019-05-12T08:26:37.809Z,4.30
2019-05-12T08:29:13.803Z,3.97
2019-05-12T08:31:40.695Z,2.90
2019-05-12T08:34:09.899Z,13.07
2019-05-12T08:36:44.297Z,4.80
2019-05-12T08:39:11.773Z,3.70
2019-05-12T08:41:44.248Z,3.97
2019-05-12T08:44:13.605Z,3.80
2019-05-12T08:46:51.925Z,3.30
2019-05-12T08:49:14.681Z,4.00
2019-05-12T08:51:44.385Z,4.80
2019-05-12T08:54:15.286Z,2.50
2019-05-12T08:56:44.797Z,3.10
2019-05-12T08:59:15.525Z,3.60
2019-05-12T09:01:45.619Z,4.73
2019-05-12T09:04:18.282Z,4.10
2019-05-12T09:06:50.191Z,6.13
2019-05-12T09:09:19.240Z,3.13
2019-05-12T09:11:48.776Z,4.13
2019-05-12T09:14:19.332Z,6.80
2019-05-12T09:16:55.928Z,5.57
2019-05-12T09:19:24.093Z,3.47
2019-05-12T09:21:54.113Z,4.27
2019-05-12T09:24:27.311Z,2.50
2019-05-12T09:26:59.108Z,3.13
2019-05-12T09:29:25.440Z,5.13
2019-05-12T09:31:59.293Z,3.97
2019-05-12T09:34:26.172Z,4.00
2019-05-12T09:36:59.742Z,5.07
2019-05-12T09:39:27.123Z,6.30
2019-05-12T09:41:57.200Z,3.17
2019-05-12T09:44:30.445Z,3.80
2019-05-12T09:46:57.941Z,3.17
2019-05-12T09:49:31.332Z,3.00
2019-05-12T09:51:58.703Z,3.53
2019-05-12T09:54:35.603Z,3.00
2019-05-12T09:56:59.903Z,3.60
2019-05-12T09:59:29.660Z,4.30
2019-05-12T10:01:59.696Z,2.80
2019-05-12T10:04:29.367Z,2.83
2019-05-12T10:06:58.868Z,3.50
2019-05-12T10:09:28.471Z,5.30
2019-05-12T10:12:00.567Z,2.47
2019-05-12T10:14:29.155Z,4.47
2019-05-12T10:16:58.689Z,5.27
2019-05-12T10:19:28.213Z,2.30
2019-05-12T10:21:59.469Z,2.90
2019-05-12T10:24:34.443Z,6.43
2019-05-12T10:27:00.169Z,2.70
2019-05-12T10:29:30.971Z,3.50
2019-05-12T10:32:00.990Z,3.67
2019-05-12T10:34:38.128Z,2.80
2019-05-12T10:37:03.769Z,2.90
2019-05-12T10:39:33.512Z,2.40
2019-05-12T10:42:03.221Z,3.70
2019-05-12T10:44:37.602Z,3.50
2019-05-12T10:47:05.728Z,3.90
2019-05-12T10:49:35.265Z,2.70
2019-05-12T10:52:05.490Z,2.50
2019-05-12T10:54:36.024Z,2.80
2019-05-12T10:57:05.645Z,2.30
2019-05-12T10:59:38.718Z,4.70
2019-05-12T11:02:06.550Z,2.50
2019-05-12T11:04:40.957Z,2.17
2019-05-12T11:07:07.574Z,3.23
2019-05-12T11:09:37.163Z,4.70
2019-05-12T11:12:06.885Z,3.43
2019-05-12T11:14:36.405Z,4.60
2019-05-12T11:17:09.359Z,3.70
2019-05-12T11:19:40.725Z,3.60
2019-05-12T11:22:09.986Z,2.80
2019-05-12T11:24:39.479Z,2.93
2019-05-12T11:27:09.034Z,2.00
2019-05-12T11:29:46.035Z,2.07
2019-05-12T11:32:09.893Z,2.87
2019-05-12T11:34:39.410Z,3.43
2019-05-12T11:37:08.997Z,2.97
2019-05-12T11:39:44.510Z,2.23
2019-05-12T11:42:10.619Z,3.33
2019-05-12T11:44:40.242Z,2.00
2019-05-12T11:47:16.938Z,3.00
2019-05-12T11:49:41.135Z,2.50
2019-05-12T11:52:15.963Z,2.93
2019-05-12T11:54:49.077Z,1.93
2019-05-12T11:57:13.461Z,5.10
2019-05-12T11:59:51.620Z,3.57
2019-05-12T12:02:14.920Z,4.03
2019-05-12T12:04:47.782Z,2.30
2019-05-12T12:07:17.674Z,3.73
2019-05-12T12:09:49.330Z,5.30
2019-05-12T12:12:18.429Z,4.60
2019-05-12T12:14:50.353Z,1.93
2019-05-12T12:17:22.895Z,1.70
2019-05-12T12:19:50.733Z,2.53
2019-05-12T12:22:25.433Z,2.20
2019-05-12T12:24:51.466Z,4.30
2019-05-12T12:27:20.981Z,1.90
2019-05-12T12:29:50.518Z,2.70
2019-05-12T12:32:20.515Z,6.20
2019-05-12T12:34:50.273Z,3.87
2019-05-12T12:37:24.124Z,2.17
2019-05-12T12:39:53.482Z,2.83
2019-05-12T12:42:24.177Z,1.53
2019-05-12T12:44:58.673Z,2.10
2019-05-12T12:47:25.121Z,2.00
2019-05-12T12:49:54.697Z,2.53
2019-05-12T12:52:24.450Z,2.30
2019-05-12T12:54:54.360Z,3.30
2019-05-12T12:57:23.948Z,3.30
2019-05-12T12:59:53.515Z,4.90
2019-05-12T13:02:24.756Z,5.83
2019-05-12T13:04:54.437Z,2.03
2019-05-12T13:07:24.204Z,2.77
2019-05-12T13:09:54.940Z,3.87
2019-05-12T13:12:25.128Z,5.93
2019-05-12T13:14:54.681Z,2.40
2019-05-12T13:17:32.647Z,2.27
2019-05-12T13:19:58.673Z,2.30
2019-05-12T13:22:29.565Z,2.50
2019-05-12T13:25:04.568Z,2.40
2019-05-12T13:27:30.195Z,2.20
2019-05-12T13:30:01.908Z,3.97
2019-05-12T13:32:32.132Z,4.43
2019-05-12T13:35:04.189Z,5.60
2019-05-12T13:37:33.852Z,2.80
2019-05-12T13:40:05.434Z,1.53
2019-05-12T13:42:35.869Z,2.57
2019-05-12T13:45:06.836Z,2.47
2019-05-12T13:47:39.930Z,2.27
2019-05-12T13:50:15.516Z,2.67
2019-05-12T13:52:38.940Z,3.37
2019-05-12T13:55:08.610Z,2.20
2019-05-12T13:57:38.101Z,2.37
2019-05-12T14:00:10.899Z,3.17
2019-05-12T14:02:39.897Z,3.00
2019-05-12T14:05:14.030Z,3.30
2019-05-12T14:07:40.744Z,2.37
2019-05-12T14:10:10.712Z,3.83
2019-05-12T14:12:40.278Z,2.70
2019-05-12T14:15:10.054Z,4.00
2019-05-12T14:17:40.603Z,2.20
2019-05-12T14:20:15.923Z,3.73
2019-05-12T14:22:44.572Z,3.37
2019-05-12T14:25:15.270Z,2.93
2019-05-12T14:27:45.053Z,2.90
2019-05-12T14:30:15.464Z,2.83
2019-05-12T14:32:49.197Z,3.17
2019-05-12T14:35:17.700Z,2.47
2019-05-12T14:37:47.571Z,8.50
2019-05-12T14:40:21.179Z,2.37
2019-05-12T14:42:48.422Z,3.10
2019-05-12T14:45:19.401Z,4.20
2019-05-12T14:47:49.165Z,4.97
2019-05-12T14:50:18.698Z,1.80
2019-05-12T14:52:50.151Z,3.93
2019-05-12T14:55:20.033Z,1.83
2019-05-12T14:57:49.572Z,3.33
2019-05-12T15:00:21.923Z,2.73
2019-05-12T15:02:51.314Z,3.93
2019-05-12T15:05:20.919Z,3.00
2019-05-12T15:07:53.466Z,9.40
2019-05-12T15:10:23.445Z,3.00
2019-05-12T15:12:54.360Z,2.63
2019-05-12T15:15:24.329Z,5.47
2019-05-12T15:18:02.581Z,3.10
2019-05-12T15:20:25.229Z,3.90
2019-05-12T15:22:55.338Z,3.77
2019-05-12T15:25:29.453Z,3.23
2019-05-12T15:27:56.411Z,2.50
2019-05-12T15:30:26.861Z,4.33
2019-05-12T15:32:56.581Z,2.50
2019-05-12T15:35:26.085Z,4.50
2019-05-12T15:37:55.617Z,3.73
2019-05-12T15:40:25.288Z,3.07
2019-05-12T15:42:55.149Z,3.53
2019-05-12T15:45:26.153Z,4.23
2019-05-12T15:47:55.694Z,4.00
2019-05-12T15:50:26.067Z,2.60
2019-05-12T15:52:55.858Z,4.17
2019-05-12T15:55:32.692Z,2.90
2019-05-12T15:57:56.728Z,2.90
2019-05-12T16:00:26.494Z,2.33
2019-05-12T16:02:56.025Z,3.57
2019-05-12T16:05:30.808Z,2.40
2019-05-12T16:07:56.774Z,4.80
2019-05-12T16:10:26.498Z,4.60
2019-05-12T16:12:56.053Z,7.00
2019-05-12T16:15:25.912Z,4.10
2019-05-12T16:17:59.399Z,3.23
2019-05-12T16:20:26.802Z,2.73
2019-05-12T16:22:56.504Z,3.93
2019-05-12T16:25:29.512Z,4.33
2019-05-12T16:27:57.375Z,4.13
2019-05-12T16:30:27.238Z,4.33
2019-05-12T16:32:56.956Z,2.53
2019-05-12T16:35:31.434Z,4.57
2019-05-12T16:37:57.810Z,3.00
2019-05-12T16:40:27.331Z,3.23
2019-05-12T16:42:59.905Z,4.40
2019-05-12T16:45:28.171Z,2.77
2019-05-12T16:47:59.242Z,5.80
2019-05-12T16:50:29.485Z,4.70
2019-05-12T16:52:59.202Z,3.47
2019-05-12T16:55:28.808Z,5.77
2019-05-12T16:57:58.360Z,2.60
2019-05-12T17:00:30.858Z,2.47
2019-05-12T17:03:00.343Z,5.70
2019-05-12T17:05:29.893Z,3.50
2019-05-12T17:07:59.451Z,3.47
2019-05-12T17:10:29.062Z,2.10
2019-05-12T17:12:58.587Z,6.47
2019-05-12T17:15:28.102Z,3.63
2019-05-12T17:18:01.529Z,4.57
2019-05-12T17:20:29.124Z,3.80
2019-05-12T17:23:00.240Z,3.23
2019-05-12T17:25:29.923Z,3.47
2019-05-12T17:28:03.784Z,5.47
2019-05-12T17:30:31.085Z,4.23
2019-05-12T17:33:02.599Z,3.70
2019-05-12T17:35:34.841Z,3.90
2019-05-12T17:38:04.809Z,3.73
2019-05-12T17:40:34.328Z,3.27
2019-05-12T17:43:11.843Z,1.93
2019-05-12T17:45:35.634Z,2.47
2019-05-12T17:48:07.545Z,5.00
2019-05-12T17:50:40.369Z,6.20
2019-05-12T17:53:07.652Z,3.00
2019-05-12T17:55:42.582Z,2.40
2019-05-12T17:58:08.435Z,3.23
2019-05-12T18:00:41.249Z,2.20
2019-05-12T18:03:20.591Z,3.37
2019-05-12T18:05:42.512Z,3.47
2019-05-12T18:08:14.005Z,3.00
2019-05-12T18:10:43.621Z,3.87
2019-05-12T18:13:17.164Z,2.43
2019-05-12T18:15:44.940Z,7.33
2019-05-12T18:18:17.424Z,3.80
2019-05-12T18:20:45.949Z,3.10
2019-05-12T18:23:19.949Z,3.63
2019-05-12T18:25:46.694Z,3.10
2019-05-12T18:28:16.268Z,3.60
2019-05-12T18:30:46.387Z,5.30
2019-05-12T18:33:29.598Z,5.07
2019-05-12T18:35:47.276Z,3.83
2019-05-12T18:38:22.769Z,3.53
2019-05-12T18:40:48.225Z,3.30
2019-05-12T18:43:17.881Z,2.70
2019-05-12T18:45:48.965Z,5.37
2019-05-12T18:48:22.249Z,3.07
2019-05-12T18:50:50.164Z,8.33
2019-05-12T18:53:27.477Z,3.40
2019-05-12T18:55:53.973Z,2.73
2019-05-12T18:58:30.831Z,6.83
2019-05-12T19:00:54.523Z,4.17
2019-05-12T19:03:25.547Z,2.20
2019-05-12T19:05:57.732Z,5.07
2019-05-12T19:08:26.677Z,10.53
2019-05-12T19:10:57.224Z,3.03
2019-05-12T19:13:26.875Z,5.10
2019-05-12T19:16:02.275Z,3.57
2019-05-12T19:18:32.434Z,5.03
2019-05-12T19:20:59.149Z,10.03
2019-05-12T19:23:35.269Z,6.13
2019-05-12T19:26:00.001Z,7.97
2019-05-12T19:28:29.888Z,4.23
2019-05-12T19:31:00.910Z,7.00
2019-05-12T19:33:30.805Z,4.80
2019-05-12T19:36:04.775Z,6.27
2019-05-12T19:38:31.639Z,4.33
2019-05-12T19:41:01.263Z,4.03
2019-05-12T19:43:30.811Z,5.63
2019-05-12T19:46:03.467Z,12.43
2019-05-12T19:48:40.141Z,8.33
2019-05-12T19:51:19.598Z,5.13
2019-05-12T19:53:33.998Z,8.60
2019-05-12T19:56:05.045Z,5.27
2019-05-12T19:58:34.772Z,10.57
2019-05-12T20:01:04.349Z,4.63
2019-05-12T20:03:34.288Z,8.17
2019-05-12T20:06:03.808Z,8.87
2019-05-12T20:08:33.360Z,5.97
2019-05-12T20:11:03.959Z,5.07
2019-05-12T20:13:36.060Z,6.57
2019-05-12T20:16:04.771Z,7.87
2019-05-12T20:18:42.936Z,7.20
2019-05-12T20:21:05.648Z,8.80
2019-05-12T20:23:35.564Z,8.47
2019-05-12T20:26:05.090Z,7.43
2019-05-12T20:28:34.763Z,6.63
2019-05-12T20:31:06.079Z,8.60
2019-05-12T20:33:35.940Z,11.50
2019-05-12T20:36:05.580Z,10.00
2019-05-12T20:38:36.951Z,14.03
2019-05-12T20:41:10.984Z,6.80
2019-05-12T20:43:41.264Z,4.60
2019-05-12T20:46:12.979Z,4.30
2019-05-12T20:48:40.198Z,6.07
2019-05-12T20:51:15.537Z,7.93
2019-05-12T20:53:40.972Z,5.83
2019-05-12T20:56:12.197Z,5.23
2019-05-12T20:58:44.279Z,7.90
2019-05-12T21:01:13.919Z,7.70
2019-05-12T21:03:46.388Z,6.87
2019-05-12T21:06:18.331Z,11.90
2019-05-12T21:08:53.611Z,4.67
2019-05-12T21:11:18.431Z,6.90
2019-05-12T21:13:47.947Z,12.23
2019-05-12T21:16:25.197Z,11.20
2019-05-12T21:18:55.892Z,8.67
2019-05-12T21:21:27.625Z,8.83
2019-05-12T21:23:53.714Z,4.37
2019-05-12T21:26:22.698Z,10.70
2019-05-12T21:28:53.889Z,10.50
2019-05-12T21:31:28.970Z,10.23
2019-05-12T21:33:54.720Z,8.37
2019-05-12T21:36:26.864Z,6.73
2019-05-12T21:38:59.409Z,8.70
2019-05-12T21:41:26.710Z,13.33
2019-05-12T21:44:00.069Z,7.23
2019-05-12T21:46:27.903Z,9.23
2019-05-12T21:49:06.740Z,12.83
2019-05-12T21:51:28.672Z,7.50
2019-05-12T21:53:58.174Z,8.50
2019-05-12T21:56:27.746Z,6.77
2019-05-12T21:58:58.405Z,10.00
2019-05-12T22:01:28.047Z,9.23
2019-05-12T22:04:02.060Z,7.67
2019-05-12T22:06:28.908Z,7.60
2019-05-12T22:09:01.593Z,11.73
2019-05-12T22:11:34.393Z,7.60
2019-05-12T22:14:04.605Z,7.53
2019-05-12T22:16:43.266Z,10.67
2019-05-12T22:19:07.489Z,8.80
2019-05-12T22:21:44.464Z,12.67
2019-05-12T22:24:08.629Z,14.30
2019-05-12T22:26:40.403Z,6.53
2019-05-12T22:29:09.411Z,5.17
2019-05-12T22:31:45.018Z,7.93
2019-05-12T22:34:10.492Z,10.07
2019-05-12T22:36:45.355Z,5.13
2019-05-12T22:39:11.536Z,6.47
2019-05-12T22:41:41.596Z,9.80
2019-05-12T22:44:18.367Z,9.57
2019-05-12T22:46:43.609Z,18.90
2019-05-12T22:49:16.843Z,4.93
2019-05-12T22:51:46.614Z,7.07
2019-05-12T22:54:16.296Z,9.13
2019-05-12T22:56:49.563Z,6.20
2019-05-12T22:59:17.017Z,10.00
2019-05-12T23:01:46.963Z,9.47
2019-05-12T23:04:16.506Z,9.10
2019-05-12T23:06:46.794Z,7.80
2019-05-12T23:09:19.479Z,6.20
2019-05-12T23:11:47.904Z,6.63
2019-05-12T23:14:21.033Z,12.93
2019-05-12T23:16:48.690Z,8.80
2019-05-12T23:19:18.320Z,7.77
2019-05-12T23:21:49.357Z,8.90
2019-05-12T23:24:19.108Z,9.20
2019-05-12T23:26:48.589Z,13.03
2019-05-12T23:29:20.399Z,11.77
2019-05-12T23:31:50.274Z,5.57
2019-05-12T23:34:20.128Z,7.47
2019-05-12T23:36:50.506Z,8.20
2019-05-12T23:39:20.881Z,8.60
2019-05-12T23:41:50.480Z,6.80
2019-05-12T23:44:20.097Z,11.90
2019-05-12T23:46:49.733Z,13.37
2019-05-12T23:49:19.230Z,6.73
2019-05-12T23:51:48.735Z,9.70
2019-05-12T23:54:18.373Z,11.13
2019-05-12T23:56:47.933Z,13.73
2019-05-12T23:59:17.469Z,8.50
